Time;durP1;ratioP1;P1;durP2;ratioP2;P2;SDS_P1;SDS_P2;PMS_P1;PMS_P2;Temp;Humidity;BMP_temperature;BMP_pressure;BME280_temperature;BME280_humidity;BME280_pressure;Samples;Min_cycle;Max_cycle;Signal;HPM_P1;HPM_P2
2024/01/04 00:02:14;;;;;;;15.48;6.95;;;;;;;6.48;100.00;99188.06;10436464;28;20052;-77
2024/01/04 00:07:14;;;;;;;11.93;7.40;;;;;;;6.50;100.00;99202.00;10386981;28;20171;-78
2024/01/04 00:12:15;;;;;;;16.60;8.48;;;;;;;6.54;100.00;99202.97;10409840;28;20098;-81
2024/01/04 00:17:15;;;;;;;14.93;6.90;;;;;;;6.58;100.00;99215.25;10409235;28;20052;-78
2024/01/04 00:22:16;;;;;;;10.65;6.70;;;;;;;6.63;100.00;99215.44;10457330;28;20056;-79
2024/01/04 00:27:16;;;;;;;12.80;7.05;;;;;;;6.63;100.00;99234.53;10415900;28;20442;-77
2024/01/04 00:32:17;;;;;;;15.15;7.05;;;;;;;6.64;100.00;99233.69;10450337;28;20037;-78
2024/01/04 00:37:17;;;;;;;11.18;6.72;;;;;;;6.64;100.00;99243.22;10450748;28;20101;-78
2024/01/04 00:42:18;;;;;;;12.13;6.38;;;;;;;6.67;100.00;99253.72;10460204;28;20071;-77
2024/01/04 00:47:18;;;;;;;10.77;5.40;;;;;;;6.69;100.00;99252.06;10455050;28;20047;-77
2024/01/04 00:52:19;;;;;;;9.75;5.82;;;;;;;6.72;100.00;99267.78;10456441;28;20048;-78
2024/01/04 00:57:19;;;;;;;10.60;5.65;;;;;;;6.66;100.00;99270.16;10439795;28;20455;-79
2024/01/04 01:02:20;;;;;;;11.13;5.97;;;;;;;6.60;100.00;99276.91;10406530;28;20128;-80
2024/01/04 01:07:20;;;;;;;10.68;4.80;;;;;;;6.55;100.00;99293.13;10467829;28;20237;-78
2024/01/04 01:12:21;;;;;;;8.75;5.38;;;;;;;6.52;100.00;99312.09;10459915;28;20436;-77
2024/01/04 01:17:21;;;;;;;10.68;6.53;;;;;;;6.51;100.00;99327.63;10457898;28;20507;-78
2024/01/04 01:22:24;;;;;;;12.63;7.13;;;;;;;6.47;100.00;99339.63;10420731;28;20041;-79
2024/01/04 01:27:25;;;;;;;8.25;5.40;;;;;;;6.44;100.00;99360.31;10413478;28;20128;-79
2024/01/04 01:32:25;;;;;;;7.95;3.53;;;;;;;6.39;100.00;99367.91;10415204;28;20507;-78
2024/01/04 01:37:26;;;;;;;10.32;4.07;;;;;;;6.28;100.00;99377.88;10372426;28;20160;-78
2024/01/04 01:42:26;;;;;;;12.30;3.80;;;;;;;6.28;100.00;99392.56;10398793;28;20041;-78
2024/01/04 01:47:28;;;;;;;7.47;3.47;;;;;;;6.31;100.00;99411.78;10401349;28;20127;-78
2024/01/04 01:52:28;;;;;;;7.20;3.10;;;;;;;6.34;100.00;99421.41;10381633;28;20045;-78
2024/01/04 01:57:33;;;;;;;9.77;4.72;;;;;;;6.37;100.00;99429.31;10421144;28;20041;-78
2024/01/04 02:02:34;;;;;;;9.63;4.47;;;;;;;6.33;100.00;99435.22;10400110;28;20047;-78
2024/01/04 02:07:34;;;;;;;12.00;6.20;;;;;;;6.37;100.00;99444.03;10415722;28;20046;-79
2024/01/04 02:12:35;;;;;;;11.13;5.65;;;;;;;6.37;100.00;99449.25;10399089;28;20126;-78
2024/01/04 02:17:35;;;;;;;14.80;5.75;;;;;;;6.35;100.00;99466.47;10419075;28;20510;-78
2024/01/04 02:22:36;;;;;;;10.60;6.25;;;;;;;6.37;100.00;99476.09;10408768;28;20125;-80
2024/01/04 02:27:37;;;;;;;14.20;5.15;;;;;;;6.42;100.00;99486.72;10449995;28;20186;-78
2024/01/04 02:32:37;;;;;;;10.48;5.72;;;;;;;6.42;100.00;99494.50;10426653;28;20086;-79
2024/01/04 02:37:38;;;;;;;15.63;6.22;;;;;;;6.44;100.00;99496.31;10451609;28;20032;-79
2024/01/04 02:42:38;;;;;;;15.18;6.53;;;;;;;6.43;100.00;99501.47;10460229;28;20043;-80
2024/01/04 02:47:39;;;;;;;11.38;5.20;;;;;;;6.38;100.00;99508.19;10456030;28;20131;-80
2024/01/04 02:52:39;;;;;;;11.93;6.82;;;;;;;6.37;100.00;99506.41;10440108;28;20128;-78
2024/01/04 02:57:40;;;;;;;15.00;6.82;;;;;;;6.40;100.00;99514.34;10444820;28;20069;-79
2024/01/04 03:02:40;;;;;;;11.70;5.30;;;;;;;6.43;100.00;99515.34;10479672;28;20571;-80
2024/01/04 03:07:41;;;;;;;16.23;7.78;;;;;;;6.40;100.00;99516.94;10433107;28;20175;-78
2024/01/04 03:12:41;;;;;;;11.30;5.57;;;;;;;6.36;100.00;99521.09;10463874;28;20123;-79
2024/01/04 03:17:42;;;;;;;11.38;6.18;;;;;;;6.32;100.00;99527.00;10474132;28;20115;-78
2024/01/04 03:22:42;;;;;;;15.63;6.15;;;;;;;6.36;100.00;99544.50;10465895;28;20127;-78
2024/01/04 03:27:43;;;;;;;11.55;6.00;;;;;;;6.42;100.00;99564.69;10464821;28;20044;-79
2024/01/04 03:32:44;;;;;;;10.43;6.27;;;;;;;6.42;100.00;99562.94;10452733;28;20095;-78
2024/01/04 03:37:44;;;;;;;13.32;6.07;;;;;;;6.42;100.00;99567.28;10390511;28;20607;-78
2024/01/04 03:42:45;;;;;;;7.97;5.43;;;;;;;6.42;100.00;99569.88;10427490;28;20049;-79
2024/01/04 03:47:45;;;;;;;17.10;8.57;;;;;;;6.42;100.00;99580.28;10403613;28;20068;-78
2024/01/04 03:52:46;;;;;;;14.10;8.38;;;;;;;6.39;100.00;99583.59;10416978;28;20045;-78
2024/01/04 03:57:46;;;;;;;16.98;8.95;;;;;;;6.40;100.00;99587.13;10426571;28;20182;-78
2024/01/04 04:02:47;;;;;;;14.38;8.45;;;;;;;6.41;100.00;99588.88;10441725;28;20196;-79
2024/01/04 04:07:47;;;;;;;17.77;9.23;;;;;;;6.40;100.00;99590.59;10446225;28;20059;-79
2024/01/04 04:12:48;;;;;;;14.10;9.88;;;;;;;6.44;100.00;99602.03;10463949;28;20513;-79
2024/01/04 04:17:48;;;;;;;21.95;12.10;;;;;;;6.44;100.00;99604.63;10476541;28;20094;-79
2024/01/04 04:22:49;;;;;;;18.52;11.90;;;;;;;6.41;100.00;99610.56;10453658;28;20033;-79
2024/01/04 04:27:49;;;;;;;19.38;11.23;;;;;;;6.41;100.00;99613.16;10469846;28;20116;-79
2024/01/04 04:32:50;;;;;;;21.50;13.63;;;;;;;6.50;100.00;99622.19;10442345;28;20096;-78
2024/01/04 04:37:50;;;;;;;24.08;15.85;;;;;;;6.49;100.00;99623.00;10393101;28;20037;-78
2024/01/04 04:42:51;;;;;;;17.95;13.02;;;;;;;6.41;100.00;99633.06;10425031;28;20065;-79
2024/01/04 04:47:51;;;;;;;21.65;11.70;;;;;;;6.46;100.00;99636.75;10385141;28;20080;-79
2024/01/04 04:52:52;;;;;;;17.00;9.38;;;;;;;6.52;100.00;99644.84;10400340;28;20560;-78
2024/01/04 04:57:52;;;;;;;16.55;8.55;;;;;;;6.56;100.00;99644.16;10401469;28;20137;-80
2024/01/04 05:02:53;;;;;;;11.73;5.65;;;;;;;6.55;100.00;99650.16;10443591;28;20515;-79
2024/01/04 05:07:54;;;;;;;10.98;5.90;;;;;;;6.56;100.00;99648.44;10397750;28;20075;-79
2024/01/04 05:12:54;;;;;;;7.55;4.75;;;;;;;6.46;100.00;99660.16;10401884;28;20118;-79
2024/01/04 05:17:55;;;;;;;14.20;3.72;;;;;;;6.37;100.00;99654.53;10401147;28;20068;-78
2024/01/04 05:22:57;;;;;;;9.30;3.67;;;;;;;6.31;100.00;99669.03;10390712;28;20049;-79
2024/01/04 05:27:58;;;;;;;9.48;4.60;;;;;;;6.31;100.00;99666.44;10430737;28;20140;-79
2024/01/04 05:32:58;;;;;;;6.88;3.75;;;;;;;6.27;100.00;99671.41;10405381;28;20043;-78
2024/01/04 05:37:59;;;;;;;7.25;3.25;;;;;;;6.23;100.00;99679.88;10380783;28;20164;-79
2024/01/04 05:42:59;;;;;;;6.35;2.65;;;;;;;6.20;100.00;99683.25;10426642;28;20059;-81
2024/01/04 05:48:00;;;;;;;6.63;3.15;;;;;;;6.20;100.00;99687.53;10461451;28;20127;-80
2024/01/04 05:53:00;;;;;;;8.52;3.35;;;;;;;6.22;100.00;99696.28;10490849;28;20033;-82
2024/01/04 05:58:01;;;;;;;6.45;3.20;;;;;;;6.21;100.00;99707.50;10450221;28;20056;-83
2024/01/04 06:03:01;;;;;;;4.80;3.00;;;;;;;6.08;100.00;99709.53;10440908;28;20131;-83
2024/01/04 06:08:02;;;;;;;6.82;2.45;;;;;;;5.98;100.00;99712.47;10420592;28;20094;-78
2024/01/04 06:13:02;;;;;;;6.15;3.70;;;;;;;5.94;100.00;99726.13;10449838;28;20049;-81
2024/01/04 06:18:03;;;;;;;5.25;2.58;;;;;;;5.90;100.00;99735.50;10467310;28;20076;-81
2024/01/04 06:23:04;;;;;;;3.42;2.15;;;;;;;5.85;100.00;99750.84;10468786;28;20404;-81
2024/01/04 06:28:04;;;;;;;5.40;2.45;;;;;;;5.85;100.00;99771.63;10440141;28;20038;-81
2024/01/04 06:33:05;;;;;;;5.05;3.03;;;;;;;5.89;100.00;99780.47;10469830;28;20040;-80
2024/01/04 06:38:08;;;;;;;8.48;5.55;;;;;;;5.90;100.00;99794.31;10444234;28;20147;-81
2024/01/04 06:43:09;;;;;;;8.60;5.13;;;;;;;5.94;100.00;99810.16;10368418;28;20461;-81
2024/01/04 06:48:10;;;;;;;9.80;5.03;;;;;;;5.92;100.00;99816.06;10398901;28;20045;-80
2024/01/04 06:53:14;;;;;;;11.18;6.07;;;;;;;5.92;100.00;99823.84;10390210;28;20492;-81
2024/01/04 06:58:14;;;;;;;10.48;6.32;;;;;;;5.91;100.00;99827.28;10425107;28;20041;-80
2024/01/04 07:03:16;;;;;;;11.82;7.22;;;;;;;5.90;100.00;99841.97;10429626;28;20085;-81
2024/01/04 07:08:17;;;;;;;16.33;8.25;;;;;;;5.91;100.00;99840.25;10451106;28;20037;-81
2024/01/04 07:13:18;;;;;;;12.48;7.68;;;;;;;5.95;100.00;99857.78;10463058;28;20489;-81
2024/01/04 07:18:18;;;;;;;16.05;6.55;;;;;;;5.95;100.00;99852.59;10491368;28;20064;-81
2024/01/04 07:23:20;;;;;;;9.73;6.80;;;;;;;5.93;100.00;99849.03;10432020;28;20041;-83
2024/01/04 07:28:20;;;;;;;16.73;6.93;;;;;;;5.90;100.00;99861.84;10403801;28;20056;-80
2024/01/04 07:33:23;;;;;;;14.82;8.90;;;;;;;5.85;100.00;99867.69;10356487;28;20277;-83
2024/01/04 07:38:23;;;;;;;12.77;6.93;;;;;;;5.82;100.00;99871.88;10391196;28;20861;-82
2024/01/04 07:43:24;;;;;;;19.05;7.25;;;;;;;5.75;100.00;99875.84;10408077;28;20214;-80
2024/01/04 07:48:25;;;;;;;10.25;6.63;;;;;;;5.73;100.00;99880.97;10394410;28;20124;-80
2024/01/04 07:53:26;;;;;;;16.98;8.60;;;;;;;5.84;100.00;99886.69;10409214;28;20047;-81
2024/01/04 07:58:26;;;;;;;10.88;6.32;;;;;;;5.91;100.00;99894.81;10437891;28;20056;-80
2024/01/04 08:03:28;;;;;;;10.77;6.70;;;;;;;6.02;100.00;99910.16;10406111;28;20120;-80
2024/01/04 08:08:28;;;;;;;9.98;4.13;;;;;;;6.12;100.00;99908.91;10417643;28;20038;-79
2024/01/04 08:13:29;;;;;;;13.52;5.88;;;;;;;6.23;100.00;99916.34;10385085;28;20048;-80
2024/01/04 08:18:31;;;;;;;16.00;6.60;;;;;;;6.31;100.00;99920.22;10404716;28;20136;-78
2024/01/04 08:23:31;;;;;;;12.38;5.85;;;;;;;6.33;100.00;99918.59;10402833;28;20045;-81
2024/01/04 08:28:32;;;;;;;10.68;5.53;;;;;;;6.31;100.00;99928.00;10415713;28;20041;-81
2024/01/04 08:33:32;;;;;;;9.00;4.65;;;;;;;6.28;100.00;99927.84;10414609;28;20555;-81
2024/01/04 08:38:33;;;;;;;7.15;4.25;;;;;;;6.18;100.00;99926.53;10455012;28;20041;-81
2024/01/04 08:43:33;;;;;;;7.68;2.90;;;;;;;6.15;100.00;99922.06;10486074;28;20040;-80
2024/01/04 08:48:34;;;;;;;3.45;1.50;;;;;;;6.03;100.00;99918.84;10443568;28;20065;-82
2024/01/04 08:53:34;;;;;;;3.05;0.93;;;;;;;5.96;100.00;99924.50;10433720;28;20053;-81
2024/01/04 08:58:35;;;;;;;2.45;1.38;;;;;;;5.94;100.00;99927.03;10443532;28;20116;-81
2024/01/04 09:03:36;;;;;;;2.63;1.42;;;;;;;6.17;100.00;99935.13;10458742;28;20045;-80
2024/01/04 09:08:37;;;;;;;2.47;1.48;;;;;;;6.35;100.00;99942.06;10464349;28;20043;-83
2024/01/04 09:13:37;;;;;;;2.72;1.60;;;;;;;6.61;100.00;99941.66;10457360;28;20033;-81
2024/01/04 09:18:38;;;;;;;6.97;2.50;;;;;;;6.64;100.00;99937.41;10448879;28;20062;-80
2024/01/04 09:23:39;;;;;;;8.48;3.88;;;;;;;6.49;100.00;99943.63;10465065;28;20119;-79
2024/01/04 09:28:39;;;;;;;6.25;3.58;;;;;;;6.46;100.00;99943.50;10461804;28;20051;-80
2024/01/04 09:33:40;;;;;;;7.75;4.03;;;;;;;6.41;100.00;99950.16;10460312;28;20037;-80
2024/01/04 09:38:41;;;;;;;6.67;3.00;;;;;;;6.30;100.00;99958.31;10443554;28;20444;-81
2024/01/04 09:43:41;;;;;;;8.55;4.07;;;;;;;6.26;100.00;99964.19;10457927;28;20052;-79
2024/01/04 09:48:42;;;;;;;8.70;4.15;;;;;;;6.26;100.00;99978.88;10461939;28;20036;-80
2024/01/04 09:53:43;;;;;;;11.40;6.10;;;;;;;6.26;100.00;99989.25;10455489;28;20436;-80
2024/01/04 09:58:43;;;;;;;10.02;5.25;;;;;;;6.27;100.00;99985.84;10450478;28;20045;-79
2024/01/04 10:03:44;;;;;;;13.55;6.75;;;;;;;6.32;100.00;99994.75;10455521;28;20174;-80
2024/01/04 10:08:44;;;;;;;12.30;6.75;;;;;;;6.32;100.00;100005.16;10461911;28;20143;-80
2024/01/04 10:13:45;;;;;;;14.95;7.75;;;;;;;6.40;100.00;100024.63;10448222;28;20132;-79
2024/01/04 10:18:45;;;;;;;13.23;7.57;;;;;;;6.35;100.00;100044.31;10441865;28;20033;-79
2024/01/04 10:23:47;;;;;;;10.52;7.50;;;;;;;6.46;100.00;100050.06;10472596;28;20116;-80
2024/01/04 10:28:54;;;;;;;14.65;8.85;;;;;;;6.48;100.00;100053.63;10452458;28;20071;-81
2024/01/04 10:34:00;;;;;;;12.68;8.00;;;;;;;6.64;100.00;100052.69;10455938;28;20064;-81
2024/01/04 10:39:06;;;;;;;17.35;9.00;;;;;;;6.99;100.00;100056.16;10462963;28;20036;-81
2024/01/04 10:44:07;;;;;;;16.35;9.25;;;;;;;7.14;100.00;100066.44;10447492;28;20123;-80
2024/01/04 10:49:07;;;;;;;15.38;6.63;;;;;;;7.14;100.00;100060.31;10438965;28;20128;-78
2024/01/04 10:54:08;;;;;;;15.70;8.85;;;;;;;7.16;100.00;100058.69;10472488;28;20119;-80
2024/01/04 10:59:08;;;;;;;13.80;6.15;;;;;;;7.22;100.00;100058.09;10446032;28;20028;-81
2024/01/04 11:04:09;;;;;;;11.85;6.78;;;;;;;7.09;100.00;100061.81;10430068;28;20119;-82
2024/01/04 11:09:10;;;;;;;11.23;5.38;;;;;;;7.02;100.00;100066.72;10438396;28;21065;-79
2024/01/04 11:14:10;;;;;;;23.30;7.38;;;;;;;6.90;100.00;100055.69;10475792;28;20127;-80
2024/01/04 11:19:40;;;;;;;15.43;6.47;;;;;;;6.88;100.00;100057.34;10479665;28;20048;-80
2024/01/04 11:24:59;;;;;;;8.00;3.55;;;;;;;6.69;100.00;100076.34;10466615;28;20086;-79
2024/01/04 11:30:01;;;;;;;10.25;3.92;;;;;;;6.26;100.00;100060.34;10437576;28;20048;-77
2024/01/04 11:35:02;;;;;;;5.05;1.63;;;;;;;5.97;100.00;100045.75;10452318;28;20039;-80
2024/01/04 11:40:07;;;;;;;2.67;0.57;;;;;;;5.72;100.00;100042.75;10471639;28;20527;-79
2024/01/04 11:45:17;;;;;;;2.17;0.70;;;;;;;5.56;100.00;100048.81;10463234;28;20124;-80
2024/01/04 11:50:22;;;;;;;2.15;0.68;;;;;;;5.54;100.00;100044.38;10446161;28;20108;-80
2024/01/04 11:55:25;;;;;;;2.15;1.20;;;;;;;5.64;100.00;100035.34;10467327;28;20484;-80
2024/01/04 12:00:31;;;;;;;6.57;2.58;;;;;;;5.92;100.00;100047.22;10460593;28;20047;-80
2024/01/04 12:05:32;;;;;;;18.30;7.70;;;;;;;6.40;100.00;100047.16;10484700;28;20052;-82
2024/01/04 12:10:33;;;;;;;21.52;9.27;;;;;;;6.81;100.00;100050.94;10466053;28;20139;-79
2024/01/04 12:15:34;;;;;;;20.97;10.87;;;;;;;7.56;100.00;100050.16;10494066;28;20171;-80
2024/01/04 12:20:34;;;;;;;25.08;8.32;;;;;;;8.06;100.00;100050.72;10465553;28;20502;-81
2024/01/04 12:25:35;;;;;;;23.48;10.40;;;;;;;8.08;100.00;100035.13;10471293;28;20116;-80
2024/01/04 12:30:39;;;;;;;27.92;9.35;;;;;;;7.85;100.00;100021.09;10464912;28;20044;-80
2024/01/04 12:35:39;;;;;;;16.85;8.77;;;;;;;7.62;100.00;100000.97;10467960;28;20552;-79
2024/01/04 12:40:40;;;;;;;18.88;10.20;;;;;;;7.42;100.00;99997.47;10473753;28;20105;-80
2024/01/04 12:45:41;;;;;;;18.90;8.13;;;;;;;7.28;100.00;99989.00;10439574;28;20078;-78
2024/01/04 12:50:41;;;;;;;26.52;8.65;;;;;;;7.78;100.00;99989.53;10462966;28;20075;-79
2024/01/04 12:55:42;;;;;;;15.98;6.82;;;;;;;7.83;100.00;99966.28;10460712;28;20127;-79
2024/01/04 13:00:42;;;;;;;17.30;8.15;;;;;;;8.03;100.00;99968.88;10464527;28;20454;-78
2024/01/04 13:05:43;;;;;;;22.63;6.78;;;;;;;8.84;100.00;99953.97;10450555;28;20049;-79
2024/01/04 13:10:43;;;;;;;16.83;6.13;;;;;;;8.78;100.00;99947.69;10459108;28;20484;-80
2024/01/04 13:15:46;;;;;;;13.65;5.72;;;;;;;8.26;100.00;99954.25;10469325;28;20116;-79
2024/01/04 13:20:47;;;;;;;14.52;6.72;;;;;;;8.00;100.00;99958.31;10460974;28;20496;-79
2024/01/04 13:25:48;;;;;;;8.05;4.95;;;;;;;7.94;100.00;99958.97;10459316;28;20116;-78
2024/01/04 13:30:49;;;;;;;10.80;5.63;;;;;;;8.02;100.00;99964.50;10462012;28;20396;-78
2024/01/04 13:35:49;;;;;;;19.15;5.15;;;;;;;8.00;100.00;99963.53;10460652;28;20037;-78
2024/01/04 13:40:50;;;;;;;11.38;4.40;;;;;;;7.98;100.00;99967.78;10464329;28;20032;-78
2024/01/04 13:45:53;;;;;;;15.77;4.90;;;;;;;7.85;100.00;99966.38;10438116;28;20120;-79
2024/01/04 13:50:55;;;;;;;19.42;5.97;;;;;;;8.16;100.00;99965.97;10458297;28;20040;-79
2024/01/04 13:55:55;;;;;;;14.00;6.00;;;;;;;7.90;100.00;99981.38;10473653;28;20105;-79
2024/01/04 14:00:56;;;;;;;9.85;4.60;;;;;;;7.68;100.00;99981.22;10462778;28;20151;-79
2024/01/04 14:05:56;;;;;;;10.90;4.45;;;;;;;7.51;100.00;100002.19;10457404;28;20175;-79
2024/01/04 14:10:59;;;;;;;14.32;5.97;;;;;;;7.41;100.00;100007.78;10464731;28;20075;-79
2024/01/04 14:15:59;;;;;;;11.85;4.55;;;;;;;7.23;100.00;100016.53;10464554;28;20114;-78
2024/01/04 14:21:00;;;;;;;12.55;4.10;;;;;;;7.16;100.00;100032.66;10457163;28;20094;-79
2024/01/04 14:26:01;;;;;;;13.70;5.47;;;;;;;7.20;100.00;100030.28;10454898;28;20121;-79
2024/01/04 14:31:02;;;;;;;17.45;4.80;;;;;;;7.25;100.00;100035.69;10464865;28;20131;-79
2024/01/04 14:36:03;;;;;;;12.90;5.03;;;;;;;7.16;100.00;100036.16;10447075;28;20045;-80
2024/01/04 14:41:05;;;;;;;10.95;4.18;;;;;;;6.99;100.00;100039.66;10457686;28;20033;-80
2024/01/04 14:46:06;;;;;;;13.13;4.45;;;;;;;6.78;100.00;100043.00;10473109;28;20064;-79
2024/01/04 14:51:06;;;;;;;19.73;5.40;;;;;;;6.77;100.00;100041.22;10466441;28;20128;-80
2024/01/04 14:56:09;;;;;;;16.52;5.75;;;;;;;6.72;100.00;100042.69;10468041;28;20132;-78
2024/01/04 15:01:10;;;;;;;13.60;4.20;;;;;;;6.68;100.00;100051.16;10464249;28;20181;-78
2024/01/04 15:06:11;;;;;;;9.07;4.13;;;;;;;6.77;100.00;100051.63;10481114;28;20428;-80
2024/01/04 15:11:12;;;;;;;14.52;4.95;;;;;;;6.71;100.00;100053.91;10471703;28;20384;-80
2024/01/04 15:16:12;;;;;;;13.00;4.95;;;;;;;6.61;100.00;100057.75;10470414;28;20128;-80
2024/01/04 15:21:13;;;;;;;16.45;5.68;;;;;;;6.59;100.00;100055.06;10464662;28;20171;-79
2024/01/04 15:26:15;;;;;;;7.88;3.50;;;;;;;6.46;100.00;100061.34;10479975;28;20123;-79
2024/01/04 15:31:16;;;;;;;12.25;5.78;;;;;;;6.25;100.00;100060.22;10460996;28;20103;-80
2024/01/04 15:36:16;;;;;;;10.53;4.43;;;;;;;5.94;100.00;100075.06;10405459;28;20048;-80
2024/01/04 15:41:17;;;;;;;6.28;3.13;;;;;;;5.47;100.00;100074.25;10412338;28;20049;-79
2024/01/04 15:46:20;;;;;;;17.55;5.45;;;;;;;5.21;100.00;100081.47;10446759;28;20043;-79
2024/01/04 15:51:21;;;;;;;12.10;3.85;;;;;;;4.97;100.00;100091.38;10466686;28;20128;-81
2024/01/04 15:56:22;;;;;;;12.38;3.90;;;;;;;4.82;100.00;100107.81;10453864;28;20029;-80
2024/01/04 16:01:25;;;;;;;20.00;5.73;;;;;;;4.82;100.00;100106.91;10447457;28;20036;-79
2024/01/04 16:06:26;;;;;;;11.43;4.10;;;;;;;4.89;100.00;100115.97;10466361;28;20283;-80
2024/01/04 16:11:26;;;;;;;13.80;5.65;;;;;;;4.79;100.00;100115.41;10444059;28;20072;-80
2024/01/04 16:16:27;;;;;;;16.52;5.50;;;;;;;4.68;100.00;100114.78;10481695;28;20507;-80
2024/01/04 16:21:27;;;;;;;14.93;5.05;;;;;;;4.54;100.00;100106.19;10448102;28;20076;-81
2024/01/04 16:26:28;;;;;;;13.70;3.88;;;;;;;4.47;100.00;100114.41;10429764;28;20503;-79
2024/01/04 16:31:28;;;;;;;14.65;5.82;;;;;;;4.37;100.00;100118.13;10430474;28;20041;-79
2024/01/04 16:36:31;;;;;;;15.52;4.97;;;;;;;4.30;100.00;100123.72;10414020;28;20045;-79
2024/01/04 16:41:32;;;;;;;20.52;6.13;;;;;;;4.31;100.00;100122.94;10439439;28;20040;-80
2024/01/04 16:46:32;;;;;;;13.23;5.97;;;;;;;4.36;100.00;100126.69;10452517;28;20047;-79
2024/01/04 16:51:33;;;;;;;16.95;5.45;;;;;;;4.43;100.00;100130.56;10435965;28;20057;-79
2024/01/04 16:56:33;;;;;;;12.07;4.68;;;;;;;4.46;100.00;100122.06;10445189;28;20039;-81
2024/01/04 17:01:33;;;;;;;12.82;5.00;;;;;;;4.43;100.00;100124.47;10429582;28;20140;-80
2024/01/04 17:06:34;;;;;;;11.82;4.88;;;;;;;4.37;100.00;100125.00;10439849;28;20094;-80
2024/01/04 17:11:34;;;;;;;13.18;5.22;;;;;;;4.38;100.00;100119.91;10426360;28;20145;-80
2024/01/04 17:16:35;;;;;;;16.13;6.43;;;;;;;4.37;100.00;100119.84;10439695;28;20123;-80
2024/01/04 17:21:36;;;;;;;13.90;5.55;;;;;;;4.39;100.00;100111.34;10429919;28;20136;-81
2024/01/04 17:26:36;;;;;;;21.02;7.18;;;;;;;4.37;100.00;100118.13;10433151;28;20046;-80
2024/01/04 17:31:37;;;;;;;11.10;5.28;;;;;;;4.35;100.00;100109.34;10426795;28;20559;-80
2024/01/04 17:36:37;;;;;;;10.35;5.57;;;;;;;4.31;100.00;100109.97;10438659;28;20050;-80
2024/01/04 17:41:39;;;;;;;15.38;6.88;;;;;;;4.26;100.00;100111.41;10440451;28;20091;-79
2024/01/04 17:46:40;;;;;;;;;;;;;;;4.22;100.00;100094.78;10440141;28;20048;-79
2024/01/04 17:51:41;;;;;;;14.13;5.03;;;;;;;4.23;100.00;100103.44;10423393;28;20250;-79
2024/01/04 17:56:42;;;;;;;12.50;5.15;;;;;;;4.24;100.00;100110.41;10420060;28;20033;-79
2024/01/04 18:01:43;;;;;;;12.48;4.97;;;;;;;4.21;100.00;100102.44;10417055;28;20115;-80
2024/01/04 18:06:43;;;;;;;15.75;6.60;;;;;;;4.20;100.00;100093.81;10438154;28;20036;-79
2024/01/04 18:11:44;;;;;;;16.52;5.88;;;;;;;4.26;100.00;100072.53;10465892;28;20136;-80
2024/01/04 18:16:44;;;;;;;15.77;5.07;;;;;;;4.32;100.00;100062.53;10461642;28;20120;-80
2024/01/04 18:21:45;;;;;;;13.90;5.32;;;;;;;4.32;100.00;100067.72;10454933;28;20503;-81
2024/01/04 18:26:45;;;;;;;21.00;7.10;;;;;;;4.32;100.00;100072.03;10462150;28;20033;-80
2024/01/04 18:31:48;;;;;;;9.90;4.90;;;;;;;4.27;100.00;100066.56;10465885;28;20055;-80
2024/01/04 18:36:49;;;;;;;21.00;6.78;;;;;;;4.30;100.00;100052.91;10458297;28;20044;-81
2024/01/04 18:41:51;;;;;;;13.85;7.38;;;;;;;4.32;100.00;100056.47;10450720;28;20132;-80
2024/01/04 18:46:52;;;;;;;15.57;6.75;;;;;;;4.23;100.00;100052.53;10444113;28;20037;-80
2024/01/04 18:51:53;;;;;;;13.43;5.78;;;;;;;4.22;100.00;100070.56;10433364;28;20036;-81
2024/01/04 18:56:54;;;;;;;19.37;9.03;;;;;;;4.21;100.00;100073.94;10436428;28;20048;-80
2024/01/04 19:01:54;;;;;;;15.15;7.15;;;;;;;4.29;100.00;100064.94;10443688;28;20441;-80
2024/01/04 19:06:55;;;;;;;27.35;8.32;;;;;;;4.36;100.00;100069.69;10456946;28;20069;-81
2024/01/04 19:11:55;;;;;;;20.10;9.45;;;;;;;4.47;100.00;100062.56;10411005;28;20045;-80
2024/01/04 19:16:56;;;;;;;28.55;9.05;;;;;;;4.55;100.00;100065.59;10437418;28;20139;-80
2024/01/04 19:22:05;;;;;;;18.75;9.75;;;;;;;4.60;100.00;100066.78;10434920;28;20476;-80
2024/01/04 19:27:06;;;;;;;18.45;9.60;;;;;;;4.64;100.00;100058.38;10470020;28;20072;-79
2024/01/04 19:32:06;;;;;;;23.33;11.82;;;;;;;4.72;100.00;100053.66;10467760;28;20382;-81
2024/01/04 19:37:07;;;;;;;17.17;9.07;;;;;;;4.79;100.00;100047.09;10372177;28;20045;-79
2024/01/04 19:42:08;;;;;;;23.67;8.45;;;;;;;4.84;100.00;100043.06;10387734;28;20045;-79
2024/01/04 19:47:08;;;;;;;26.42;10.27;;;;;;;4.87;100.00;100040.66;10405454;28;20145;-79
2024/01/04 19:52:08;;;;;;;20.98;10.07;;;;;;;4.87;100.00;100044.97;10378749;28;20116;-79
2024/01/04 19:57:09;;;;;;;18.83;10.50;;;;;;;4.88;100.00;100036.38;10404659;28;20061;-79
2024/01/04 20:02:09;;;;;;;16.70;9.63;;;;;;;4.90;100.00;100025.28;10403881;28;20136;-79
2024/01/04 20:07:12;;;;;;;19.63;8.77;;;;;;;4.98;100.00;100024.00;10405467;28;20124;-80
2024/01/04 20:12:12;;;;;;;;;;;;;;;4.99;100.00;100011.94;10403960;28;20148;-80
2024/01/04 20:17:12;;;;;;;17.05;8.10;;;;;;;5.09;100.00;100011.66;10403950;28;20024;-80
2024/01/04 20:22:13;;;;;;;14.20;7.57;;;;;;;5.19;100.00;100000.06;10442732;28;20169;-79
2024/01/04 20:27:14;;;;;;;19.63;8.90;;;;;;;5.17;100.00;99990.44;10410896;28;20458;-80
2024/01/04 20:32:16;;;;;;;23.37;10.17;;;;;;;5.18;100.00;99985.31;10404929;28;20048;-79
2024/01/04 20:37:16;;;;;;;21.13;9.37;;;;;;;5.17;100.00;99975.75;10429506;28;20124;-79
2024/01/04 20:42:19;;;;;;;18.88;8.80;;;;;;;5.21;100.00;99972.50;10461587;28;20043;-79
2024/01/04 20:47:20;;;;;;;19.95;8.70;;;;;;;5.25;100.00;99963.22;10425954;28;20040;-80
2024/01/04 20:52:20;;;;;;;16.05;8.40;;;;;;;5.28;100.00;99961.66;10425450;28;20120;-80
2024/01/04 20:57:21;;;;;;;16.88;9.32;;;;;;;5.28;100.00;99953.88;10429503;28;20068;-80
2024/01/04 21:02:21;;;;;;;17.40;7.68;;;;;;;5.32;100.00;99929.00;10451272;28;20132;-79
2024/01/04 21:07:22;;;;;;;18.80;8.32;;;;;;;5.40;100.00;99919.03;10402061;28;20034;-80
2024/01/04 21:12:23;;;;;;;22.52;7.32;;;;;;;5.41;100.00;99908.75;10401163;28;20152;-81
2024/01/04 21:17:24;;;;;;;13.93;5.93;;;;;;;5.43;100.00;99903.63;10458659;28;20473;-81
2024/01/04 21:22:26;;;;;;;18.50;6.88;;;;;;;5.46;100.00;99901.19;10461776;28;20049;-80
2024/01/04 21:27:26;;;;;;;18.48;6.35;;;;;;;5.46;100.00;99895.13;10453190;28;20028;-81
2024/01/04 21:32:27;;;;;;;15.23;6.90;;;;;;;5.48;100.00;99876.19;10441264;28;20127;-80
2024/01/04 21:37:27;;;;;;;20.48;7.53;;;;;;;5.53;100.00;99869.53;10441139;28;20136;-81
2024/01/04 21:42:28;;;;;;;11.13;5.90;;;;;;;5.50;100.00;99861.59;10465533;28;20448;-80
2024/01/04 21:47:28;;;;;;;11.50;4.50;;;;;;;5.52;100.00;99849.59;10448698;28;20113;-78
2024/01/04 21:52:29;;;;;;;12.70;5.60;;;;;;;5.54;100.00;99835.00;10400666;28;20050;-80
2024/01/04 21:57:29;;;;;;;14.02;6.00;;;;;;;5.50;100.00;99817.47;10397299;28;20491;-80
2024/01/04 22:02:30;;;;;;;12.82;5.63;;;;;;;5.46;100.00;99819.84;10402371;28;20449;-81
2024/01/04 22:07:30;;;;;;;19.75;5.47;;;;;;;5.46;100.00;99812.06;10422809;28;20131;-80
2024/01/04 22:12:31;;;;;;;22.92;6.65;;;;;;;5.42;100.00;99808.41;10463544;28;20128;-79
2024/01/04 22:17:31;;;;;;;13.13;6.00;;;;;;;5.41;100.00;99797.16;10412276;28;20773;-81
2024/01/04 22:22:32;;;;;;;10.52;6.00;;;;;;;5.42;100.00;99788.56;10398975;28;20116;-81
2024/01/04 22:27:33;;;;;;;18.10;6.30;;;;;;;5.43;100.00;99784.25;10395111;28;20080;-80
2024/01/04 22:32:33;;;;;;;12.75;5.45;;;;;;;5.46;100.00;99766.22;10402828;28;20120;-79
2024/01/04 22:37:36;;;;;;;13.80;6.78;;;;;;;5.52;100.00;99756.16;10390029;28;20077;-78
2024/01/04 22:42:36;;;;;;;15.50;5.78;;;;;;;5.56;100.00;99760.69;10403421;28;20041;-80
2024/01/04 22:47:37;;;;;;;13.27;5.75;;;;;;;5.62;100.00;99741.03;10395869;28;20563;-79
2024/01/04 22:52:38;;;;;;;14.57;6.53;;;;;;;5.64;100.00;99739.41;10431409;28;20045;-79
2024/01/04 22:57:39;;;;;;;13.80;6.23;;;;;;;5.73;100.00;99732.06;10435457;28;20076;-80
2024/01/04 23:02:39;;;;;;;24.50;6.95;;;;;;;5.74;100.00;99728.66;10437967;28;20048;-81